Time;durP1;ratioP1;P1;durP2;ratioP2;P2;SDS_P1;SDS_P2;PMS_P1;PMS_P2;Temp;Humidity;BMP_temperature;BMP_pressure;BME280_temperature;BME280_humidity;BME280_pressure;Samples;Min_cycle;Max_cycle;Signal;HPM_P1;HPM_P2
2020/12/06 00:01:54;;;;;;;20.45;13.10;;;;;;;4.98;80.75;96998.91;1744518;82;22250;-79
2020/12/06 00:04:23;;;;;;;18.48;11.85;;;;;;;4.95;80.89;96996.97;1743992;82;21172;-78
2020/12/06 00:06:51;;;;;;;23.60;13.13;;;;;;;4.95;80.89;96989.98;1744003;82;21058;-79
2020/12/06 00:09:20;;;;;;;27.40;11.75;;;;;;;4.93;80.97;96999.70;1743959;82;21054;-79
2020/12/06 00:11:50;;;;;;;36.50;11.57;;;;;;;4.95;81.17;97002.19;1744168;82;21024;-79
2020/12/06 00:14:19;;;;;;;18.27;11.50;;;;;;;4.99;80.77;97010.19;1743919;82;21212;-78
2020/12/06 00:16:49;;;;;;;17.25;11.97;;;;;;;5.00;80.82;97010.08;1743947;82;21495;-79
2020/12/06 00:19:18;;;;;;;16.48;10.70;;;;;;;4.99;80.55;97010.19;1743913;82;21090;-79
2020/12/06 00:21:46;;;;;;;23.57;11.28;;;;;;;4.97;80.52;97005.52;1743810;82;21144;-78
2020/12/06 00:24:16;;;;;;;29.55;11.75;;;;;;;4.93;80.49;97017.12;1743971;82;21579;-78
2020/12/06 00:26:45;;;;;;;34.45;11.60;;;;;;;4.90;80.38;97012.09;1743809;82;21385;-78
2020/12/06 00:29:13;;;;;;;18.55;10.08;;;;;;;4.88;80.27;97019.20;1744411;82;21626;-78
2020/12/06 00:31:44;;;;;;;16.75;10.80;;;;;;;4.83;80.31;97018.20;1743808;82;21158;-79
2020/12/06 00:34:12;;;;;;;15.75;8.88;;;;;;;4.81;80.31;97027.92;1715096;82;21082;-79
2020/12/06 00:36:41;;;;;;;18.73;10.70;;;;;;;4.78;80.38;97028.11;1743928;82;21098;-79
2020/12/06 00:39:10;;;;;;;24.95;10.63;;;;;;;4.75;80.48;97026.55;1743889;82;21191;-79
2020/12/06 00:41:38;;;;;;;26.33;10.58;;;;;;;4.75;80.62;97022.64;1743889;82;21081;-78
2020/12/06 00:44:07;;;;;;;13.85;9.78;;;;;;;4.71;80.39;97017.72;1744226;82;21145;-79
2020/12/06 00:46:36;;;;;;;15.60;9.83;;;;;;;4.64;80.43;97017.77;1743982;82;21638;-78
2020/12/06 00:49:04;;;;;;;14.20;10.23;;;;;;;4.57;80.40;97020.42;1745011;81;21070;-79
2020/12/06 00:51:33;;;;;;;21.37;10.58;;;;;;;4.42;80.65;97019.64;1750146;82;21379;-80
2020/12/06 00:54:02;;;;;;;17.65;10.78;;;;;;;4.41;81.44;97020.11;1749681;82;21094;-78
2020/12/06 00:56:37;;;;;;;36.55;11.68;;;;;;;4.46;81.37;97015.44;1750379;82;21669;-78
2020/12/06 00:59:06;;;;;;;;;;;;;;;4.53;81.37;97010.66;1752268;82;21113;-77
2020/12/06 01:01:41;;;;;;;17.42;10.43;;;;;;;4.52;80.81;97015.51;1749857;82;20544;-78
2020/12/06 01:04:10;;;;;;;17.20;10.35;;;;;;;4.46;80.83;97014.14;1749685;82;21200;-79
2020/12/06 01:06:38;;;;;;;24.70;11.03;;;;;;;4.41;80.96;97008.86;1749773;82;21625;-79
2020/12/06 01:09:07;;;;;;;32.98;10.63;;;;;;;4.32;80.92;97006.83;1749472;82;21130;-79
2020/12/06 01:11:36;;;;;;;33.08;10.70;;;;;;;4.25;81.42;97009.84;1749569;82;21566;-79
2020/12/06 01:14:05;;;;;;;13.58;8.48;;;;;;;4.20;81.44;97008.47;1749837;82;21082;-78
2020/12/06 01:16:33;;;;;;;12.75;9.05;;;;;;;4.20;81.80;97002.78;1750834;80;21289;-80
2020/12/06 01:19:03;;;;;;;14.35;8.83;;;;;;;4.22;81.60;97006.62;1752888;80;21161;-79
2020/12/06 01:21:32;;;;;;;19.95;9.95;;;;;;;4.16;81.59;97007.85;1751839;80;21030;-78
2020/12/06 01:24:02;;;;;;;28.85;10.48;;;;;;;4.12;81.83;97009.44;1749727;82;21078;-77
2020/12/06 01:26:31;;;;;;;27.48;9.68;;;;;;;4.10;82.07;97002.20;1749434;82;21491;-77
2020/12/06 01:29:00;;;;;;;12.65;8.60;;;;;;;4.09;82.06;97010.48;1749418;82;21200;-77
2020/12/06 01:31:29;;;;;;;13.05;8.65;;;;;;;4.11;81.91;97004.70;1749845;82;21066;-78
2020/12/06 01:33:58;;;;;;;17.62;10.30;;;;;;;4.06;81.87;97007.23;1749353;82;21049;-78
2020/12/06 01:36:27;;;;;;;15.53;8.10;;;;;;;4.03;82.13;97012.16;1749753;82;21134;-79
2020/12/06 01:38:55;;;;;;;26.17;9.45;;;;;;;3.99;82.24;97006.80;1749850;82;21561;-78
2020/12/06 01:41:24;;;;;;;27.85;8.85;;;;;;;4.02;82.39;97010.48;1749594;82;21261;-78
2020/12/06 01:43:58;;;;;;;15.58;9.08;;;;;;;4.04;82.13;97009.11;1749627;82;21841;-79
2020/12/06 01:46:27;;;;;;;12.15;8.30;;;;;;;3.96;81.96;97018.70;1749923;82;21113;-78
2020/12/06 01:48:57;;;;;;;18.50;9.28;;;;;;;3.90;82.15;97017.31;1749036;82;21197;-79
2020/12/06 01:51:25;;;;;;;17.25;9.68;;;;;;;3.87;82.18;97021.91;1735685;82;21122;-78
2020/12/06 01:53:54;;;;;;;25.88;9.03;;;;;;;3.84;82.48;97024.22;1735888;82;21214;-79
2020/12/06 01:56:23;;;;;;;12.90;8.90;;;;;;;3.77;82.41;97020.34;1735662;82;21209;-78
2020/12/06 01:58:52;;;;;;;11.85;8.10;;;;;;;3.68;82.64;97019.16;1736203;82;21071;-77
2020/12/06 02:01:20;;;;;;;14.65;8.50;;;;;;;3.67;82.97;97016.16;1735873;82;21094;-78
2020/12/06 02:03:53;;;;;;;20.10;9.38;;;;;;;3.72;83.06;97024.52;1735895;81;21058;-80
2020/12/06 02:06:22;;;;;;;18.42;8.80;;;;;;;3.78;83.00;97021.17;1736105;81;21370;-79
2020/12/06 02:08:51;;;;;;;21.35;8.90;;;;;;;3.83;82.95;97020.42;1735793;82;21118;-79
2020/12/06 02:11:32;;;;;;;11.75;7.28;;;;;;;3.80;82.41;97019.33;1735858;82;21047;-78
2020/12/06 02:14:01;;;;;;;12.28;8.23;;;;;;;3.79;82.49;97024.14;1735660;82;21125;-79
2020/12/06 02:16:29;;;;;;;11.95;7.47;;;;;;;3.76;82.45;97027.78;1735609;82;21035;-79
2020/12/06 02:18:58;;;;;;;20.88;9.20;;;;;;;3.73;82.24;97028.80;1735540;82;21348;-79
2020/12/06 02:21:27;;;;;;;26.20;8.95;;;;;;;3.63;82.34;97026.41;1735615;82;21151;-78
2020/12/06 02:23:56;;;;;;;17.80;8.13;;;;;;;3.60;82.85;97037.01;1735911;81;21566;-80
2020/12/06 02:26:25;;;;;;;12.78;8.53;;;;;;;3.63;82.89;97031.62;1735759;82;21185;-78
2020/12/06 02:28:54;;;;;;;11.30;7.40;;;;;;;3.71;82.75;97037.18;1735770;82;21146;-80
2020/12/06 02:31:23;;;;;;;15.05;8.20;;;;;;;3.72;82.43;97036.71;1735977;81;21410;-79
2020/12/06 02:33:52;;;;;;;20.65;7.90;;;;;;;3.60;82.21;97039.61;1735679;82;21066;-79
2020/12/06 02:36:22;;;;;;;27.32;8.68;;;;;;;3.52;82.50;97039.73;1736000;82;21063;-79
2020/12/06 02:38:52;;;;;;;11.10;7.62;;;;;;;3.46;82.70;97030.06;1735731;81;21074;-79
2020/12/06 02:41:21;;;;;;;11.60;7.55;;;;;;;3.42;82.89;97025.12;1735919;82;21054;-79
2020/12/06 02:43:50;;;;;;;13.95;6.70;;;;;;;3.42;83.17;97023.83;1735762;82;21367;-79
2020/12/06 02:46:19;;;;;;;13.78;7.28;;;;;;;3.43;83.16;97021.13;1735786;82;21083;-80
2020/12/06 02:48:47;;;;;;;21.77;6.97;;;;;;;3.45;83.21;97028.39;1735605;82;21543;-79
2020/12/06 02:51:16;;;;;;;22.37;7.28;;;;;;;3.49;83.14;97025.95;1747275;81;21140;-79
2020/12/06 02:53:45;;;;;;;12.88;6.65;;;;;;;3.54;83.03;97017.86;1749593;82;21093;-79
2020/12/06 02:56:13;;;;;;;10.38;7.17;;;;;;;3.53;82.77;97025.77;1749827;82;22130;-78
2020/12/06 02:58:42;;;;;;;11.60;6.70;;;;;;;3.52;82.77;97023.64;1749795;82;21065;-78
2020/12/06 03:01:14;;;;;;;13.50;6.95;;;;;;;3.51;82.69;97021.97;1749745;82;21097;-78
2020/12/06 03:03:45;;;;;;;25.30;7.25;;;;;;;3.48;82.59;97016.47;1751562;80;21102;-78
2020/12/06 03:06:17;;;;;;;14.30;7.03;;;;;;;3.40;82.54;97014.81;1751276;77;21118;31
2020/12/06 03:08:49;;;;;;;8.88;5.97;;;;;;;3.32;82.65;97021.41;1706906;82;21356;-78
2020/12/06 03:11:21;;;;;;;11.30;6.90;;;;;;;3.27;82.97;97017.81;1705663;84;21147;-79
2020/12/06 03:13:49;;;;;;;11.00;6.67;;;;;;;3.24;83.07;97021.88;1705095;84;21128;-78
2020/12/06 03:16:24;;;;;;;12.90;6.58;;;;;;;3.25;83.24;97023.55;1705301;84;21576;-78
2020/12/06 03:18:54;;;;;;;14.00;5.78;;;;;;;3.30;83.27;97018.08;1705138;84;21092;-77
2020/12/06 03:21:22;;;;;;;8.80;5.28;;;;;;;3.34;83.04;97020.87;1705019;84;21155;-78
2020/12/06 03:23:52;;;;;;;8.53;5.58;;;;;;;3.31;82.68;97024.95;1704924;84;21150;-77
2020/12/06 03:26:21;;;;;;;9.85;5.40;;;;;;;3.23;82.61;97024.12;1704882;84;21166;-77
2020/12/06 03:28:50;;;;;;;19.32;6.05;;;;;;;3.12;82.86;97031.73;1704972;84;21172;-78
2020/12/06 03:31:19;;;;;;;13.45;6.42;;;;;;;3.09;83.16;97029.34;1705193;84;21158;-80
2020/12/06 03:33:48;;;;;;;8.45;5.12;;;;;;;3.07;83.21;97030.70;1704970;84;21270;-78
2020/12/06 03:36:18;;;;;;;8.63;5.62;;;;;;;3.08;83.17;97020.66;1704713;84;21588;-79
2020/12/06 03:38:46;;;;;;;10.55;5.92;;;;;;;3.03;82.99;97029.70;1704884;84;21184;-78
2020/12/06 03:41:15;;;;;;;10.25;5.33;;;;;;;2.92;83.29;97038.14;1705370;84;21084;-78
2020/12/06 03:43:44;;;;;;;32.65;6.42;;;;;;;2.90;83.55;97029.56;1705072;84;21068;-77
2020/12/06 03:46:13;;;;;;;13.22;5.95;;;;;;;2.86;83.71;97028.10;1705006;84;21343;-79
2020/12/06 03:48:41;;;;;;;10.00;6.03;;;;;;;2.87;83.74;97034.97;1705047;84;21155;-80
2020/12/06 03:51:10;;;;;;;8.70;5.50;;;;;;;2.83;83.61;97034.77;1705011;84;21226;-79
2020/12/06 03:53:39;;;;;;;10.28;5.47;;;;;;;2.76;83.74;97033.00;1705635;84;21187;-79
2020/12/06 03:56:08;;;;;;;26.80;6.35;;;;;;;2.76;83.90;97037.36;1705427;84;21163;-78
2020/12/06 03:58:37;;;;;;;13.95;5.50;;;;;;;2.80;84.12;97037.56;1704939;84;21472;-80
2020/12/06 04:01:06;;;;;;;19.40;5.22;;;;;;;2.85;84.02;97042.03;1705294;84;21125;-79
2020/12/06 04:03:35;;;;;;;7.55;4.78;;;;;;;2.84;83.59;97042.47;1704922;84;21084;-79
2020/12/06 04:06:03;;;;;;;8.90;5.97;;;;;;;2.77;83.57;97052.03;1704713;84;21116;-78
2020/12/06 04:08:32;;;;;;;10.08;5.87;;;;;;;2.73;83.58;97054.42;1681391;82;21196;-78
2020/12/06 04:11:01;;;;;;;11.68;5.42;;;;;;;2.71;83.88;97053.69;1675594;85;21180;-78
2020/12/06 04:13:29;;;;;;;10.68;5.35;;;;;;;2.72;83.93;97049.69;1675444;85;21143;-79
2020/12/06 04:15:58;;;;;;;10.00;5.33;;;;;;;2.67;83.72;97051.28;1675348;85;21164;-79
2020/12/06 04:18:27;;;;;;;9.25;4.55;;;;;;;2.65;83.82;97047.92;1675641;85;21187;-78
2020/12/06 04:20:56;;;;;;;7.40;4.35;;;;;;;2.66;83.83;97057.38;1675910;85;21050;-79
2020/12/06 04:23:25;;;;;;;10.03;5.05;;;;;;;2.63;83.55;97054.98;1675703;85;22355;-79
2020/12/06 04:26:12;;;;;;;22.40;5.50;;;;;;;2.57;83.64;97062.30;1675989;85;21108;-80
2020/12/06 04:28:41;;;;;;;7.95;4.83;;;;;;;2.53;83.90;97055.12;1675829;85;21589;-80
2020/12/06 04:31:10;;;;;;;7.87;4.20;;;;;;;2.56;83.80;97056.73;1675907;85;21191;-79
2020/12/06 04:33:42;;;;;;;7.53;4.47;;;;;;;2.60;83.68;97057.74;1676066;82;21208;-78
2020/12/06 04:36:11;;;;;;;8.45;4.67;;;;;;;2.56;83.63;97061.46;1675911;85;21387;-78
2020/12/06 04:38:40;;;;;;;12.35;5.30;;;;;;;2.60;83.86;97058.20;1675870;85;21609;-78
2020/12/06 04:41:09;;;;;;;28.32;9.70;;;;;;;2.63;83.35;97053.67;1678529;85;21143;-80
2020/12/06 04:43:39;;;;;;;75.65;36.35;;;;;;;2.58;83.10;97063.50;1679054;85;21167;-79
2020/12/06 04:46:07;;;;;;;24.72;14.00;;;;;;;2.52;83.25;97062.55;1678675;82;21168;-80
2020/12/06 04:48:48;;;;;;;14.78;7.55;;;;;;;2.51;83.33;97062.19;1659907;83;21315;-78
2020/12/06 04:51:17;;;;;;;19.65;10.78;;;;;;;2.48;83.41;97063.64;1677976;85;21155;-80
2020/12/06 04:53:51;;;;;;;24.15;11.73;;;;;;;2.50;83.51;97060.98;1678619;82;21128;-79
2020/12/06 04:56:21;;;;;;;16.27;9.08;;;;;;;2.52;83.31;97061.72;1678671;84;21168;-79
2020/12/06 04:58:51;;;;;;;17.42;10.03;;;;;;;2.51;83.41;97061.35;1679256;83;21113;-79
2020/12/06 05:01:20;;;;;;;50.80;21.82;;;;;;;2.54;83.21;97063.30;1678946;83;21384;-79
2020/12/06 05:03:52;;;;;;;20.25;10.23;;;;;;;2.54;83.09;97063.30;1678053;85;21172;-79
2020/12/06 05:06:21;;;;;;;60.08;27.32;;;;;;;2.55;82.88;97066.30;1676899;85;21216;-79
2020/12/06 05:08:50;;;;;;;45.10;17.00;;;;;;;2.50;83.06;97068.78;1704051;84;21183;-79
2020/12/06 05:11:19;;;;;;;37.95;17.10;;;;;;;2.47;82.84;97061.98;1712180;84;21133;-79
2020/12/06 05:13:48;;;;;;;70.10;35.08;;;;;;;2.40;83.05;97070.59;1709545;84;21188;-79
2020/12/06 05:16:17;;;;;;;34.03;18.17;;;;;;;2.40;83.19;97062.80;1709399;84;21140;-79
2020/12/06 05:18:46;;;;;;;17.12;9.65;;;;;;;2.35;82.88;97066.58;1709198;83;21097;-78
2020/12/06 05:21:15;;;;;;;39.13;21.62;;;;;;;2.25;83.29;97063.64;1665978;86;21085;-78
2020/12/06 05:23:45;;;;;;;20.15;10.32;;;;;;;2.23;83.51;97067.27;1666365;86;21200;-80
2020/12/06 05:26:17;;;;;;;36.38;9.85;;;;;;;2.22;83.41;97074.69;1648787;86;21215;-78
2020/12/06 05:28:45;;;;;;;29.35;14.93;;;;;;;2.20;83.62;97074.78;1666481;86;21121;-80
2020/12/06 05:31:15;;;;;;;48.28;27.52;;;;;;;2.21;83.53;97075.16;1665907;86;21074;-79
2020/12/06 05:33:44;;;;;;;31.68;16.90;;;;;;;2.22;83.56;97078.59;1665762;86;21107;-79
2020/12/06 05:36:12;;;;;;;42.55;21.07;;;;;;;2.22;83.53;97083.31;1666134;86;21568;-79
2020/12/06 05:38:41;;;;;;;57.45;28.00;;;;;;;2.21;83.65;97082.95;1666452;86;21334;-78
2020/12/06 05:41:10;;;;;;;30.55;16.40;;;;;;;2.22;83.62;97081.19;1666122;86;21162;-78
2020/12/06 05:43:39;;;;;;;13.78;8.08;;;;;;;2.22;83.63;97082.48;1666390;86;21177;-78
2020/12/06 05:46:12;;;;;;;13.83;8.20;;;;;;;2.24;83.62;97093.16;1666290;86;21237;-81
2020/12/06 05:48:41;;;;;;;;;;;;;;;2.25;83.65;97086.19;1668474;86;21150;-79
2020/12/06 05:51:09;;;;;;;20.85;10.00;;;;;;;2.33;83.79;97084.02;1665714;86;21198;-78
2020/12/06 05:53:38;;;;;;;59.77;19.75;;;;;;;2.35;83.42;97080.41;1665709;86;21186;-78
2020/12/06 05:56:19;;;;;;;74.82;25.60;;;;;;;2.33;83.23;97076.23;1665772;86;21090;-78
2020/12/06 05:58:55;;;;;;;80.38;31.05;;;;;;;2.33;83.27;97073.63;1852112;77;23611;-79
2020/12/06 06:01:23;;;;;;;18.23;8.58;;;;;;;2.24;83.26;97085.36;1819914;78;21476;-78
2020/12/06 06:03:53;;;;;;;30.00;12.88;;;;;;;2.23;83.37;97084.16;1749839;82;21371;-79
2020/12/06 06:06:33;;;;;;;82.15;35.65;;;;;;;2.20;83.52;97082.58;1819880;78;21523;-79
2020/12/06 06:09:03;;;;;;;64.75;27.50;;;;;;;2.23;83.52;97090.65;1749845;82;21055;-79
2020/12/06 06:11:32;;;;;;;136.55;44.77;;;;;;;2.27;83.51;97094.30;1819890;78;21614;-79
2020/12/06 06:14:04;;;;;;;68.50;27.52;;;;;;;2.31;83.34;97089.75;1819835;78;21089;-79
2020/12/06 06:16:40;;;;;;;73.02;33.23;;;;;;;2.32;83.19;97085.79;1819786;78;21202;-79
2020/12/06 06:19:11;;;;;;;35.03;16.70;;;;;;;2.33;82.98;97086.62;1750019;82;21713;-79
2020/12/06 06:21:41;;;;;;;39.95;24.07;;;;;;;2.29;82.73;97091.14;1820245;78;21144;-78
2020/12/06 06:24:14;;;;;;;85.25;52.48;;;;;;;2.22;82.96;97098.08;1722473;82;21117;-79
2020/12/06 06:26:45;;;;;;;33.08;20.77;;;;;;;2.23;83.18;97090.65;1815472;78;21494;-78
2020/12/06 06:29:16;;;;;;;27.30;14.60;;;;;;;2.24;83.21;97093.62;1750034;82;21124;-79
2020/12/06 06:31:48;;;;;;;17.15;10.30;;;;;;;2.26;83.10;97093.09;1819933;78;21081;-79
2020/12/06 06:34:17;;;;;;;26.65;15.15;;;;;;;2.26;82.88;97093.92;1819916;78;21177;-79
2020/12/06 06:36:49;;;;;;;31.42;13.93;;;;;;;2.19;82.88;97090.44;1820704;78;21037;-80
2020/12/06 06:39:23;;;;;;;14.45;6.78;;;;;;;2.15;83.44;97092.38;1792880;77;21410;-79
2020/12/06 06:42:10;;;;;;;40.78;20.57;;;;;;;2.21;83.31;97101.13;1822819;78;21285;-78
2020/12/06 06:44:44;;;;;;;16.27;10.30;;;;;;;2.20;83.30;97091.67;1793919;78;21137;-79
2020/12/06 06:47:14;;;;;;;23.42;14.23;;;;;;;2.23;83.27;97098.45;1776675;80;21089;-80
2020/12/06 06:49:57;;;;;;;12.18;6.95;;;;;;;2.20;83.22;97102.53;1776794;80;21054;-79
2020/12/06 06:52:27;;;;;;;23.77;13.75;;;;;;;2.17;83.36;97107.41;1776422;80;21073;-80
2020/12/06 06:54:58;;;;;;;21.07;8.70;;;;;;;2.18;83.41;97099.16;1776408;80;21189;-79
2020/12/06 06:57:30;;;;;;;25.30;15.60;;;;;;;2.21;83.37;97097.70;1780813;80;21104;-78
2020/12/06 06:59:59;;;;;;;10.10;6.22;;;;;;;2.19;83.46;97104.26;1793023;80;21120;-79
2020/12/06 07:02:38;;;;;;;9.90;5.30;;;;;;;2.22;83.37;97103.27;1793025;80;21164;-80
2020/12/06 07:05:21;;;;;;;13.00;5.40;;;;;;;2.24;83.36;97110.51;1793312;80;21125;-79
2020/12/06 07:07:51;;;;;;;16.25;7.80;;;;;;;2.22;83.22;97113.66;1793095;80;21417;-79
2020/12/06 07:10:23;;;;;;;10.38;6.17;;;;;;;2.20;83.33;97109.02;1792544;80;21125;-80
2020/12/06 07:12:58;;;;;;;11.25;6.22;;;;;;;2.21;83.38;97106.80;1792578;80;21057;-81
2020/12/06 07:15:27;;;;;;;9.00;4.83;;;;;;;2.24;83.43;97115.70;1792540;80;21061;-80
2020/12/06 07:17:56;;;;;;;9.10;5.15;;;;;;;2.31;83.27;97115.30;1792499;80;21196;-79
2020/12/06 07:20:26;;;;;;;12.78;5.55;;;;;;;2.32;83.04;97114.84;1792703;80;21502;-81
2020/12/06 07:22:56;;;;;;;9.65;4.58;;;;;;;2.28;83.20;97108.96;1792781;80;21077;-80
2020/12/06 07:25:26;;;;;;;9.10;5.17;;;;;;;2.30;83.18;97111.00;1792777;80;21525;-79
2020/12/06 07:27:55;;;;;;;8.50;4.60;;;;;;;2.29;83.19;97111.09;1792951;80;21047;-80
2020/12/06 07:30:24;;;;;;;11.00;5.50;;;;;;;2.31;83.06;97114.44;1792830;80;21069;-80
2020/12/06 07:32:53;;;;;;;9.83;4.92;;;;;;;2.31;83.00;97119.63;1792900;80;21233;-78
2020/12/06 07:35:24;;;;;;;12.73;5.05;;;;;;;2.27;82.99;97122.88;1793022;80;21108;-81
2020/12/06 07:37:56;;;;;;;11.60;5.33;;;;;;;2.27;83.07;97122.05;1792999;80;21041;-81
2020/12/06 07:40:25;;;;;;;10.15;4.87;;;;;;;2.25;82.92;97127.77;1792751;80;21053;-78
2020/12/06 07:42:54;;;;;;;8.98;5.10;;;;;;;2.18;83.08;97123.84;1792843;80;21478;-79
2020/12/06 07:45:26;;;;;;;8.55;4.90;;;;;;;2.17;83.25;97129.50;1792775;80;21223;-79
2020/12/06 07:47:56;;;;;;;10.95;5.95;;;;;;;2.13;83.12;97129.28;1792524;80;21482;-80
2020/12/06 07:50:25;;;;;;;11.70;5.95;;;;;;;2.07;83.31;97121.36;1792442;80;21069;-81
2020/12/06 07:52:53;;;;;;;9.40;5.37;;;;;;;2.06;83.62;97115.79;1792673;80;21085;-81
2020/12/06 07:55:22;;;;;;;10.58;5.60;;;;;;;2.07;83.57;97116.62;1792593;80;21033;-82
2020/12/06 07:57:53;;;;;;;9.35;5.45;;;;;;;2.09;83.73;97116.10;1792393;80;21201;-82
2020/12/06 08:00:37;;;;;;;15.72;5.28;;;;;;;2.14;83.58;97112.80;1792695;80;21228;-80
2020/12/06 08:03:01;;;;;;;14.10;7.22;;;;;;;2.12;83.42;97119.34;1792045;80;21231;-81
2020/12/06 08:05:33;;;;;;;10.05;6.60;;;;;;;2.11;83.58;97111.19;1792780;80;21137;-83
2020/12/06 08:08:13;;;;;;;12.47;6.37;;;;;;;2.07;83.52;97123.95;1792806;80;21588;-80
2020/12/06 08:10:43;;;;;;;12.33;6.10;;;;;;;2.12;83.69;97123.71;1792404;80;21142;-81
2020/12/06 08:13:11;;;;;;;12.18;5.12;;;;;;;2.17;83.69;97118.27;1792656;80;21160;-83
2020/12/06 08:15:41;;;;;;;14.38;5.65;;;;;;;2.21;83.25;97122.39;1792742;80;21128;-81
2020/12/06 08:18:15;;;;;;;12.93;5.60;;;;;;;2.16;83.04;97126.99;1792651;80;21210;-82
2020/12/06 08:20:54;;;;;;;9.33;5.15;;;;;;;2.11;83.28;97128.07;1792651;80;21140;-82
2020/12/06 08:23:36;;;;;;;8.73;5.03;;;;;;;2.10;83.14;97126.86;1793766;79;21140;-81
2020/12/06 08:26:05;;;;;;;16.37;6.20;;;;;;;2.06;83.37;97132.67;1796251;79;21053;-79
2020/12/06 08:28:34;;;;;;;13.95;6.10;;;;;;;2.09;83.51;97124.73;1794572;79;21165;-80
2020/12/06 08:31:24;;;;;;;11.88;6.33;;;;;;;2.12;83.10;97121.95;1875794;75;28408;-80
2020/12/06 08:33:57;;;;;;;11.12;6.33;;;;;;;2.06;83.21;97130.54;1819931;78;21113;-81
2020/12/06 08:36:36;;;;;;;11.22;5.75;;;;;;;2.09;83.43;97110.44;1852492;77;28010;-80
2020/12/06 08:39:24;;;;;;;13.43;5.97;;;;;;;2.07;83.23;97117.92;1750305;82;21065;-81
2020/12/06 08:45:00;;;;;;;11.40;6.80;;;;;;;2.06;83.69;97107.16;1882110;75;28179;-79
2020/12/06 08:47:54;;;;;;;10.78;6.12;;;;;;;2.04;83.43;97105.95;1855089;76;21054;-82
2020/12/06 08:50:16;;;;;;;14.55;7.62;;;;;;;1.97;83.33;97106.38;1851397;76;21452;-78
2020/12/06 08:52:45;;;;;;;15.05;6.35;;;;;;;1.96;83.51;97108.14;1855073;77;21105;-79
2020/12/06 08:55:37;;;;;;;15.30;8.43;;;;;;;1.93;83.43;97114.79;1855108;77;21597;-80
2020/12/06 08:58:05;;;;;;;10.65;6.42;;;;;;;1.89;83.63;97114.56;1854866;77;21096;-81
2020/12/06 09:00:35;;;;;;;10.60;6.78;;;;;;;1.88;83.82;97112.44;1855125;77;21157;-81
2020/12/06 09:03:04;;;;;;;11.12;5.95;;;;;;;1.94;83.95;97115.16;1855357;77;21314;-81
2020/12/06 09:05:32;;;;;;;14.58;6.45;;;;;;;2.00;84.02;97113.99;1854958;77;21085;-81
2020/12/06 09:08:01;;;;;;;13.13;7.62;;;;;;;2.06;83.74;97114.95;1855329;77;21044;-81
2020/12/06 09:10:30;;;;;;;9.88;5.90;;;;;;;2.06;83.50;97105.40;1855296;77;21048;-81
2020/12/06 09:12:59;;;;;;;9.48;5.45;;;;;;;2.06;83.51;97096.77;1855239;77;21046;-81
2020/12/06 09:15:27;;;;;;;14.07;7.10;;;;;;;2.04;83.44;97099.92;1855085;77;21189;-79
2020/12/06 09:17:56;;;;;;;15.70;7.65;;;;;;;2.01;83.41;97086.62;1854976;77;21561;-80
2020/12/06 09:20:25;;;;;;;24.30;9.60;;;;;;;1.99;83.51;97088.95;1854979;77;21136;-82
2020/12/06 09:22:53;;;;;;;11.83;7.25;;;;;;;1.93;83.55;97091.42;1855336;77;21164;-80
2020/12/06 09:25:22;;;;;;;13.30;7.83;;;;;;;1.88;83.57;97096.85;1855309;77;21475;-82
2020/12/06 09:27:50;;;;;;;12.63;7.95;;;;;;;1.85;83.80;97094.44;1854989;77;21198;-82
2020/12/06 09:30:19;;;;;;;15.60;7.55;;;;;;;1.84;83.92;97096.66;1855006;77;21057;-83
2020/12/06 09:32:47;;;;;;;13.30;8.30;;;;;;;1.84;84.07;97091.94;1854906;77;21128;-82
2020/12/06 09:35:16;;;;;;;14.23;7.95;;;;;;;1.84;84.01;97086.28;1854908;77;21089;-80
2020/12/06 09:37:45;;;;;;;11.20;7.12;;;;;;;1.85;84.24;97077.56;1854908;77;21561;-82
2020/12/06 09:40:14;;;;;;;12.13;7.03;;;;;;;1.87;84.03;97082.66;1854997;77;21261;-82
2020/12/06 09:42:42;;;;;;;15.95;7.72;;;;;;;1.84;84.06;97071.16;1854985;77;21164;-80
2020/12/06 09:45:13;;;;;;;13.35;7.33;;;;;;;1.83;84.37;97069.00;1858649;77;21139;-81
2020/12/06 09:47:42;;;;;;;10.50;6.17;;;;;;;1.86;84.31;97070.61;1858723;77;21124;-83
2020/12/06 09:50:11;;;;;;;12.60;7.47;;;;;;;1.90;84.21;97066.93;1858548;77;21037;-81
2020/12/06 09:52:40;;;;;;;10.08;6.35;;;;;;;1.93;84.16;97067.20;1858688;77;21186;-78
2020/12/06 09:55:10;;;;;;;14.75;7.35;;;;;;;1.93;84.04;97065.91;1854044;77;21561;-81
2020/12/06 09:57:39;;;;;;;12.35;7.17;;;;;;;1.91;83.94;97066.47;1858249;77;21061;-82
2020/12/06 10:00:07;;;;;;;12.23;7.08;;;;;;;1.83;84.05;97063.80;1857852;77;21148;-79
2020/12/06 10:02:38;;;;;;;9.15;5.00;;;;;;;1.83;84.39;97055.17;1857998;77;21090;-82
2020/12/06 10:05:06;;;;;;;10.85;6.70;;;;;;;1.85;84.26;97054.19;1858181;77;22242;-82
2020/12/06 10:07:35;;;;;;;13.50;7.05;;;;;;;1.83;84.23;97049.98;1858026;77;21093;-80
2020/12/06 10:10:06;;;;;;;12.73;7.25;;;;;;;1.87;84.54;97054.09;1858495;77;21124;-82
2020/12/06 10:12:35;;;;;;;12.82;8.05;;;;;;;1.91;84.47;97043.93;1861802;75;21093;-81
2020/12/06 10:15:04;;;;;;;11.15;6.60;;;;;;;1.97;84.37;97038.86;1861316;75;21578;-81
2020/12/06 10:17:34;;;;;;;12.78;7.35;;;;;;;2.03;84.19;97027.66;1858527;77;21355;-81
2020/12/06 10:20:03;;;;;;;13.45;7.65;;;;;;;2.09;83.89;97031.22;1858136;77;21128;-80
2020/12/06 10:22:32;;;;;;;13.93;7.35;;;;;;;2.09;83.47;97036.87;1857964;77;21057;-80
2020/12/06 10:25:07;;;;;;;13.58;7.10;;;;;;;2.05;83.32;97029.70;1857670;77;21099;-81
2020/12/06 10:27:36;;;;;;;13.35;7.87;;;;;;;2.03;83.63;97034.16;1858136;77;21597;-81
2020/12/06 10:30:06;;;;;;;11.83;7.40;;;;;;;2.09;83.55;97029.08;1858002;77;21331;-82
2020/12/06 10:32:34;;;;;;;13.85;8.35;;;;;;;2.12;83.40;97026.30;1857864;77;21113;-80
2020/12/06 10:35:04;;;;;;;12.03;7.10;;;;;;;2.16;83.42;97020.48;1858006;77;21155;-81
2020/12/06 10:37:33;;;;;;;24.00;15.03;;;;;;;2.20;82.81;97023.28;1858007;77;21458;-79
2020/12/06 10:40:01;;;;;;;20.62;12.80;;;;;;;2.14;82.92;97029.66;1858085;77;21065;-80
2020/12/06 10:42:30;;;;;;;19.75;12.37;;;;;;;2.18;83.25;97024.65;1858013;77;21220;-81
2020/12/06 10:44:58;;;;;;;16.50;10.53;;;;;;;2.21;82.78;97026.25;1854668;77;21057;-80
2020/12/06 10:47:27;;;;;;;14.55;9.68;;;;;;;2.17;82.72;97035.14;1854642;77;21534;-81
2020/12/06 10:49:55;;;;;;;14.05;8.38;;;;;;;2.12;82.77;97028.89;1854339;77;21137;-81
2020/12/06 10:52:24;;;;;;;22.37;15.58;;;;;;;2.09;83.02;97014.80;1854244;77;21164;-81
2020/12/06 10:54:54;;;;;;;16.82;10.25;;;;;;;2.13;83.10;97013.67;1854457;77;21196;-81
2020/12/06 10:57:24;;;;;;;21.52;13.25;;;;;;;2.18;83.12;97008.23;1854303;77;21152;-82
2020/12/06 10:59:54;;;;;;;13.35;8.28;;;;;;;2.17;82.94;97010.45;1854364;77;21486;-82
2020/12/06 11:02:25;;;;;;;14.78;9.13;;;;;;;2.14;83.01;97010.18;1854391;77;21161;-80
2020/12/06 11:04:53;;;;;;;13.48;7.78;;;;;;;2.13;83.07;97009.78;1854564;77;21124;-81
2020/12/06 11:07:22;;;;;;;14.03;8.53;;;;;;;2.17;83.23;97005.27;1854722;77;21183;-80
2020/12/06 11:09:51;;;;;;;15.13;8.63;;;;;;;2.22;82.97;96996.28;1854440;77;21053;-81
2020/12/06 11:12:21;;;;;;;12.37;7.92;;;;;;;2.24;83.14;96998.32;1854475;77;21180;-80
2020/12/06 11:14:49;;;;;;;12.73;8.48;;;;;;;2.29;82.75;96989.80;1854485;77;21049;-80
2020/12/06 11:17:20;;;;;;;14.63;9.13;;;;;;;2.30;82.60;96997.13;1854580;77;21034;-79
2020/12/06 11:19:48;;;;;;;12.23;7.17;;;;;;;2.29;82.69;96992.41;1854588;77;21634;-81
2020/12/06 11:22:17;;;;;;;11.65;7.12;;;;;;;2.36;82.63;96982.48;1854255;77;21124;-81
2020/12/06 11:24:45;;;;;;;11.68;7.47;;;;;;;2.37;82.48;96991.95;1854229;77;21089;-81
2020/12/06 11:27:14;;;;;;;12.75;7.72;;;;;;;2.36;82.57;96984.63;1854559;77;21171;-81
2020/12/06 11:29:42;;;;;;;16.57;9.33;;;;;;;2.35;82.31;96980.36;1854323;77;21097;-80
2020/12/06 11:32:12;;;;;;;13.75;8.43;;;;;;;2.32;82.38;96976.65;1854540;77;21193;-82
2020/12/06 11:34:40;;;;;;;12.03;7.62;;;;;;;2.32;82.40;96977.95;1854363;77;21057;-80
2020/12/06 11:37:09;;;;;;;14.70;7.83;;;;;;;2.35;82.47;96975.63;1854284;77;21117;-81
2020/12/06 11:39:40;;;;;;;11.53;7.35;;;;;;;2.32;82.12;96975.81;1854373;77;21061;-81
2020/12/06 11:42:09;;;;;;;13.78;8.05;;;;;;;2.27;82.41;96975.23;1854792;77;21042;-81
2020/12/06 11:44:37;;;;;;;15.72;8.83;;;;;;;2.28;82.71;96963.92;1856499;77;22140;-80
2020/12/06 11:47:06;;;;;;;15.38;9.25;;;;;;;2.32;82.43;96968.02;1858040;77;21145;-80
2020/12/06 11:49:34;;;;;;;14.80;8.90;;;;;;;2.30;82.30;96965.95;1857969;77;21156;-80